Time;durP1;ratioP1;P1;durP2;ratioP2;P2;SDS_P1;SDS_P2;PMS_P1;PMS_P2;Temp;Humidity;BMP_temperature;BMP_pressure;BME280_temperature;BME280_humidity;BME280_pressure;Samples;Min_cycle;Max_cycle;Signal;HPM_P1;HPM_P2
2022/08/29 00:00:31;;;;;;;5.22;4.70;;;14.70;99.90;;;;;;5054611;28;20044;-58
2022/08/29 00:02:59;;;;;;;5.05;4.63;;;14.70;99.90;;;;;;5053779;28;20036;-56
2022/08/29 00:05:30;;;;;;;6.18;4.70;;;14.70;99.90;;;;;;5054476;28;20040;-56
2022/08/29 00:07:59;;;;;;;5.25;4.75;;;14.60;99.90;;;;;;5053559;28;20044;-57
2022/08/29 00:10:28;;;;;;;8.93;4.75;;;14.60;99.90;;;;;;5053931;28;20139;-56
2022/08/29 00:12:55;;;;;;;8.35;4.78;;;14.60;99.90;;;;;;5053483;28;20032;-57
2022/08/29 00:15:24;;;;;;;6.35;4.90;;;14.60;99.90;;;;;;5047074;28;20048;-56
2022/08/29 00:17:51;;;;;;;6.88;6.03;;;14.60;99.90;;;;;;5032763;28;21026;-56
2022/08/29 00:20:21;;;;;;;10.13;4.88;;;14.60;99.90;;;;;;5033668;28;20112;-57
2022/08/29 00:23:04;;;;;;;6.40;4.85;;;14.60;99.90;;;;;;5033807;28;20126;-57
2022/08/29 00:25:31;;;;;;;5.68;4.97;;;14.60;99.90;;;;;;5032844;28;20041;-58
2022/08/29 00:27:58;;;;;;;8.50;5.63;;;14.60;99.90;;;;;;5034202;28;20049;-57
2022/08/29 00:30:25;;;;;;;7.18;4.45;;;14.60;99.90;;;;;;5032352;28;20045;-58
2022/08/29 00:32:52;;;;;;;20.98;4.97;;;14.50;99.90;;;;;;5033597;28;20045;-55
2022/08/29 00:35:23;;;;;;;5.47;4.97;;;14.50;99.90;;;;;;5033420;28;20037;-57
2022/08/29 00:37:51;;;;;;;6.55;4.85;;;14.50;99.90;;;;;;5049676;28;20063;-57
2022/08/29 00:40:26;;;;;;;5.30;4.80;;;14.40;99.90;;;;;;5053271;28;20137;-56
2022/08/29 00:42:53;;;;;;;9.48;4.75;;;14.40;99.90;;;;;;5053507;28;20593;-57
2022/08/29 00:45:21;;;;;;;6.55;5.22;;;14.40;99.90;;;;;;5053730;28;20569;-56
2022/08/29 00:47:57;;;;;;;4.97;4.47;;;14.40;99.90;;;;;;5052723;28;20059;-56
2022/08/29 00:51:02;;;;;;;9.63;5.00;;;14.30;99.90;;;;;;5053405;28;20044;-57
2022/08/29 00:53:43;;;;;;;5.70;5.07;;;14.30;99.90;;;;;;5028405;28;20056;-56
2022/08/29 00:56:13;;;;;;;6.60;5.00;;;14.30;99.90;;;;;;5053196;28;20051;-56
2022/08/29 00:58:49;;;;;;;4.78;4.28;;;14.30;99.90;;;;;;5052542;28;20059;-58
2022/08/29 01:01:16;;;;;;;5.20;4.70;;;14.30;99.90;;;;;;5053548;28;20071;-58
2022/08/29 01:03:43;;;;;;;7.05;4.93;;;14.20;99.90;;;;;;5052349;28;20044;-56
2022/08/29 01:06:15;;;;;;;5.88;4.50;;;14.20;99.90;;;;;;5053378;28;20044;-57
2022/08/29 01:08:43;;;;;;;7.18;5.30;;;14.20;99.90;;;;;;5053118;28;20912;-57
2022/08/29 01:14:01;;;;;;;5.80;4.95;;;14.20;99.90;;;;;;5052460;28;20036;-56
2022/08/29 01:16:29;;;;;;;6.03;5.40;;;14.20;99.90;;;;;;5045469;28;20126;-56
2022/08/29 01:19:00;;;;;;;6.00;4.70;;;14.10;99.90;;;;;;5031942;28;20053;-56
2022/08/29 01:21:55;;;;;;;6.50;5.78;;;14.10;99.90;;;;;;5032172;28;20377;-57
2022/08/29 01:24:33;;;;;;;8.85;5.50;;;14.10;99.90;;;;;;5032779;28;20045;-54
2022/08/29 01:27:00;;;;;;;7.63;5.40;;;14.10;99.90;;;;;;5032995;28;20459;-56
2022/08/29 01:29:27;;;;;;;5.45;4.82;;;14.10;99.90;;;;;;5033008;28;20441;-56
2022/08/29 01:31:54;;;;;;;5.85;4.93;;;14.10;99.90;;;;;;5032586;28;20052;-55
2022/08/29 01:34:26;;;;;;;6.90;5.13;;;14.10;99.90;;;;;;5037083;28;20045;-56
2022/08/29 01:36:59;;;;;;;10.55;6.22;;;14.10;99.90;;;;;;5048156;28;20038;-56
2022/08/29 01:39:34;;;;;;;5.32;4.30;;;14.10;99.90;;;;;;5036464;28;20467;-57
2022/08/29 01:42:04;;;;;;;6.57;5.40;;;14.00;99.90;;;;;;5035139;28;20056;-58
2022/08/29 01:44:32;;;;;;;6.28;5.57;;;14.10;99.90;;;;;;5037193;28;20608;-57
2022/08/29 01:47:00;;;;;;;8.65;5.07;;;14.10;99.90;;;;;;5037252;28;20040;-56
2022/08/29 01:49:31;;;;;;;6.38;5.38;;;14.00;99.90;;;;;;5036735;28;20044;-57
2022/08/29 01:51:58;;;;;;;8.35;6.03;;;14.10;99.90;;;;;;5036751;28;20052;-56
2022/08/29 01:54:26;;;;;;;7.22;4.68;;;14.10;99.90;;;;;;5047781;28;20048;-58
2022/08/29 01:56:53;;;;;;;5.70;4.75;;;14.10;99.90;;;;;;5056426;28;20047;-56
2022/08/29 01:59:25;;;;;;;5.15;4.65;;;14.10;99.90;;;;;;5056232;28;20848;-55
2022/08/29 02:02:12;;;;;;;4.65;4.10;;;14.10;99.90;;;;;;5056817;28;20052;-58
2022/08/29 02:04:39;;;;;;;;;;;14.00;99.90;;;;;;5056752;28;20090;-57
2022/08/29 02:07:06;;;;;;;5.03;4.53;;;14.00;99.90;;;;;;5056411;28;19924;-55
2022/08/29 02:09:39;;;;;;;4.53;4.10;;;14.00;99.90;;;;;;5056677;28;20078;-57
2022/08/29 02:12:12;;;;;;;8.75;4.50;;;14.00;99.90;;;;;;5040033;28;20029;-56
2022/08/29 02:14:40;;;;;;;5.68;4.72;;;14.00;99.90;;;;;;5056388;28;20737;-57
2022/08/29 02:17:07;;;;;;;6.50;4.53;;;13.90;99.90;;;;;;5051770;28;20056;-57
2022/08/29 02:19:35;;;;;;;4.53;4.13;;;13.90;99.90;;;;;;5035129;28;20091;-56
2022/08/29 02:22:03;;;;;;;5.18;4.60;;;13.90;99.90;;;;;;5036176;28;20546;-57
2022/08/29 02:24:30;;;;;;;5.30;4.80;;;13.90;99.90;;;;;;5036681;28;20072;-57
2022/08/29 02:26:57;;;;;;;;;;;13.90;99.90;;;;;;5036316;28;20102;-56
2022/08/29 02:29:25;;;;;;;8.57;5.10;;;13.90;99.90;;;;;;5036297;28;19939;-56
2022/08/29 02:32:03;;;;;;;5.65;4.63;;;13.90;99.90;;;;;;5036084;28;20126;-57
2022/08/29 02:34:32;;;;;;;6.03;4.95;;;13.80;99.90;;;;;;5035456;28;20246;-58
2022/08/29 02:36:58;;;;;;;6.25;5.10;;;13.80;99.90;;;;;;5048762;28;20545;-57
2022/08/29 02:39:26;;;;;;;7.80;5.20;;;13.80;99.90;;;;;;5055823;28;20490;-55
2022/08/29 02:41:52;;;;;;;5.57;4.50;;;13.80;99.90;;;;;;5055993;28;20106;-56
2022/08/29 02:44:19;;;;;;;;;;;13.80;99.90;;;;;;5055580;28;20052;-55
2022/08/29 02:46:46;;;;;;;7.38;5.65;;;13.80;99.90;;;;;;5056022;28;19928;-58
2022/08/29 02:49:13;;;;;;;6.40;4.05;;;13.70;99.90;;;;;;5055653;28;20044;-55
2022/08/29 02:51:40;;;;;;;7.57;4.32;;;13.70;99.90;;;;;;5055272;28;20040;-57
2022/08/29 02:54:07;;;;;;;4.35;3.95;;;13.70;99.90;;;;;;5054644;28;20580;-56
2022/08/29 02:56:34;;;;;;;7.60;4.47;;;13.70;99.90;;;;;;5054695;28;20101;-55
2022/08/29 02:59:01;;;;;;;10.10;5.38;;;13.70;99.90;;;;;;5055533;28;20702;-55
2022/08/29 03:01:29;;;;;;;5.03;4.38;;;13.70;99.90;;;;;;5054976;28;20045;-54
2022/08/29 03:03:57;;;;;;;6.18;4.25;;;13.70;99.90;;;;;;5037679;28;20044;-54
2022/08/29 03:06:23;;;;;;;;;;;13.80;99.90;;;;;;5035472;28;20037;-55
2022/08/29 03:08:50;;;;;;;7.18;4.88;;;13.70;99.90;;;;;;5035260;28;19925;-53
2022/08/29 03:11:20;;;;;;;7.25;4.85;;;13.70;99.90;;;;;;5048380;28;20036;-56
2022/08/29 03:13:46;;;;;;;4.30;3.90;;;13.70;99.90;;;;;;5054176;28;20044;-55
2022/08/29 03:16:13;;;;;;;5.68;4.30;;;13.60;99.90;;;;;;5055399;28;20044;-55
2022/08/29 03:18:40;;;;;;;7.35;4.95;;;13.60;99.90;;;;;;5045232;28;20484;-56
2022/08/29 03:21:15;;;;;;;7.68;5.40;;;13.60;99.90;;;;;;5034198;28;20778;-56
2022/08/29 03:23:42;;;;;;;6.93;5.68;;;13.50;99.90;;;;;;5033243;28;20075;-54
2022/08/29 03:26:09;;;;;;;6.00;5.28;;;13.50;99.90;;;;;;5034969;28;20052;-54
2022/08/29 03:28:36;;;;;;;;;;;13.50;99.90;;;;;;5035478;28;20111;-55
2022/08/29 03:31:03;;;;;;;7.57;5.00;;;13.50;99.90;;;;;;5034619;28;19932;-54
2022/08/29 03:33:30;;;;;;;;;;;13.50;99.90;;;;;;5035317;28;20561;-55
2022/08/29 03:35:56;;;;;;;8.40;5.13;;;13.50;99.90;;;;;;5039121;28;19931;-53
2022/08/29 03:38:23;;;;;;;6.97;5.00;;;13.40;99.90;;;;;;5052619;28;20098;-54
2022/08/29 03:40:50;;;;;;;5.80;5.03;;;13.40;99.90;;;;;;5052917;28;20086;-54
2022/08/29 03:43:21;;;;;;;4.78;4.18;;;13.40;99.90;;;;;;5054422;28;20056;-53
2022/08/29 03:45:48;;;;;;;7.05;5.00;;;13.30;99.90;;;;;;5054225;28;20206;-53
2022/08/29 03:48:15;;;;;;;6.65;5.47;;;13.30;99.90;;;;;;5054819;28;20682;-56
2022/08/29 03:50:42;;;;;;;;;;;13.30;99.90;;;;;;5054313;28;20044;-56
2022/08/29 03:53:09;;;;;;;7.82;5.53;;;13.30;99.90;;;;;;5054267;28;19978;-55
2022/08/29 03:55:36;;;;;;;7.18;5.40;;;13.30;99.90;;;;;;5054499;28;20121;-55
2022/08/29 03:58:03;;;;;;;7.85;6.88;;;13.20;99.90;;;;;;5055450;28;20484;-54
2022/08/29 04:00:31;;;;;;;6.70;5.93;;;13.30;99.90;;;;;;5054045;28;20045;-55
2022/08/29 04:02:58;;;;;;;9.48;5.85;;;13.30;99.90;;;;;;5054882;28;20713;-56
2022/08/29 04:05:25;;;;;;;10.80;7.00;;;13.30;99.90;;;;;;5055959;28;20059;-56
2022/08/29 04:07:55;;;;;;;9.40;6.25;;;13.20;99.90;;;;;;5054766;28;20068;-53
2022/08/29 04:10:26;;;;;;;7.70;6.90;;;13.20;99.90;;;;;;5055857;28;20044;-53
2022/08/29 04:12:53;;;;;;;9.30;7.28;;;13.20;99.90;;;;;;5053335;28;20079;-54
2022/08/29 04:15:22;;;;;;;12.93;6.88;;;13.20;99.90;;;;;;5054779;28;20894;-54
2022/08/29 04:17:54;;;;;;;9.40;6.75;;;13.20;99.90;;;;;;5054905;28;20049;-53
2022/08/29 04:20:23;;;;;;;10.02;6.78;;;13.20;99.90;;;;;;5037727;28;20135;-51
2022/08/29 04:22:52;;;;;;;9.50;6.82;;;13.20;99.90;;;;;;5034943;28;20881;-54
2022/08/29 04:25:21;;;;;;;9.77;7.95;;;13.20;99.90;;;;;;5034651;28;20060;-53
2022/08/29 04:27:48;;;;;;;15.02;9.10;;;13.10;99.90;;;;;;5035013;28;20049;-54
2022/08/29 04:30:20;;;;;;;8.43;7.20;;;13.10;99.90;;;;;;5033048;28;20699;-54
2022/08/29 04:32:47;;;;;;;11.30;8.15;;;13.10;99.90;;;;;;5034856;28;20067;-53
2022/08/29 04:35:15;;;;;;;13.25;8.05;;;13.20;99.90;;;;;;5035150;28;20036;-55
2022/08/29 04:37:43;;;;;;;11.98;8.55;;;13.20;99.90;;;;;;5051654;28;20036;-54
2022/08/29 04:40:14;;;;;;;8.07;7.15;;;13.20;99.90;;;;;;5053615;28;20051;-54
2022/08/29 04:42:41;;;;;;;9.52;7.70;;;13.20;99.90;;;;;;5054648;28;20127;-54
2022/08/29 04:45:11;;;;;;;10.52;6.93;;;13.20;99.90;;;;;;5053297;28;20573;-56
2022/08/29 04:47:40;;;;;;;10.30;6.97;;;13.20;99.90;;;;;;5054783;28;20036;-55
2022/08/29 04:50:11;;;;;;;7.70;6.55;;;13.30;99.90;;;;;;5052666;28;20519;-55
2022/08/29 04:52:38;;;;;;;10.90;7.43;;;13.30;99.90;;;;;;5054033;28;20125;-55
2022/08/29 04:55:07;;;;;;;11.10;6.60;;;13.20;99.90;;;;;;5053470;28;20036;-54
2022/08/29 04:57:35;;;;;;;9.88;6.65;;;13.30;99.90;;;;;;5052761;28;20053;-54
2022/08/29 05:00:05;;;;;;;7.68;5.97;;;13.30;99.90;;;;;;5052789;28;20044;-54
2022/08/29 05:02:32;;;;;;;9.48;6.00;;;13.30;99.90;;;;;;5054997;28;20048;-53
2022/08/29 05:04:59;;;;;;;6.55;5.63;;;13.30;99.90;;;;;;5054213;28;20127;-55
2022/08/29 05:07:26;;;;;;;;;;;13.30;99.90;;;;;;5053473;28;20056;-55
2022/08/29 05:10:02;;;;;;;6.30;5.25;;;13.30;99.90;;;;;;5054202;28;19928;-56
2022/08/29 05:12:30;;;;;;;7.68;5.20;;;13.30;99.90;;;;;;5054725;28;20040;-55
2022/08/29 05:14:57;;;;;;;7.03;5.85;;;13.30;99.90;;;;;;5031997;28;20041;-56
2022/08/29 05:17:24;;;;;;;;;;;13.40;99.90;;;;;;5035255;28;20060;-55
2022/08/29 05:19:52;;;;;;;8.68;5.57;;;13.40;99.90;;;;;;5034491;28;19964;-55
2022/08/29 05:22:20;;;;;;;13.18;7.00;;;13.40;99.90;;;;;;5032714;28;20044;-56
2022/08/29 05:24:48;;;;;;;6.03;5.43;;;13.40;99.90;;;;;;5034470;28;20049;-56
2022/08/29 05:27:17;;;;;;;7.07;5.70;;;13.40;99.90;;;;;;5034188;28;20477;-55
2022/08/29 05:29:46;;;;;;;7.35;6.03;;;13.50;99.90;;;;;;5034322;28;20049;-55
2022/08/29 05:32:14;;;;;;;6.75;6.00;;;13.50;99.90;;;;;;5033984;28;20103;-55
2022/08/29 05:34:42;;;;;;;6.90;6.00;;;13.50;99.90;;;;;;5034283;28;20053;-56
2022/08/29 05:37:13;;;;;;;6.72;6.03;;;13.60;99.90;;;;;;5047776;28;20457;-56
2022/08/29 05:39:41;;;;;;;9.00;6.75;;;13.60;99.90;;;;;;5054387;28;20055;-55
2022/08/29 05:42:10;;;;;;;6.50;5.80;;;13.60;99.90;;;;;;5054655;28;20033;-57
2022/08/29 05:44:39;;;;;;;7.95;6.80;;;13.70;99.90;;;;;;5053559;28;20790;-56
2022/08/29 05:47:08;;;;;;;10.23;7.35;;;13.70;99.90;;;;;;5053551;28;20633;-55
2022/08/29 05:49:40;;;;;;;9.25;6.88;;;13.80;99.90;;;;;;5051975;28;20100;-53
2022/08/29 05:52:07;;;;;;;6.68;5.97;;;13.90;99.90;;;;;;5052973;28;20044;-55
2022/08/29 05:54:36;;;;;;;6.53;5.80;;;14.00;99.90;;;;;;5053300;28;20060;-55
2022/08/29 05:57:04;;;;;;;10.02;6.82;;;14.00;99.90;;;;;;5053808;28;20044;-60
2022/08/29 05:59:31;;;;;;;6.93;6.22;;;14.10;99.90;;;;;;5053751;28;20044;-59
2022/08/29 06:01:58;;;;;;;8.45;6.90;;;14.20;99.90;;;;;;5054159;28;20170;-57
2022/08/29 06:04:25;;;;;;;9.20;7.45;;;14.20;99.90;;;;;;5052232;28;20052;-55
2022/08/29 06:06:52;;;;;;;9.32;6.40;;;14.30;99.90;;;;;;5053795;28;20550;-55
2022/08/29 06:09:18;;;;;;;10.00;7.65;;;14.40;99.90;;;;;;5052838;28;20055;-54
2022/08/29 06:11:46;;;;;;;;;;;14.50;99.90;;;;;;5051950;28;20064;-55
2022/08/29 06:14:14;;;;;;;;;;;14.50;99.90;;;;;;5053768;28;19924;-53
2022/08/29 06:16:42;;;;;;;10.90;6.93;;;14.60;99.90;;;;;;5053711;28;20410;-52
2022/08/29 06:19:09;;;;;;;7.97;6.82;;;14.70;99.90;;;;;;5054388;28;20111;-55
2022/08/29 06:21:36;;;;;;;7.20;6.45;;;14.90;99.90;;;;;;5048361;28;20041;-55
2022/08/29 06:24:04;;;;;;;11.07;7.05;;;15.00;99.90;;;;;;5036103;28;20040;-53
2022/08/29 06:26:31;;;;;;;7.57;6.75;;;15.10;99.90;;;;;;5036075;28;20110;-54
2022/08/29 06:28:58;;;;;;;10.45;6.85;;;15.20;99.90;;;;;;5036915;28;20061;-53
2022/08/29 06:31:27;;;;;;;9.10;6.65;;;15.30;99.90;;;;;;5037487;28;20045;-52
2022/08/29 06:33:58;;;;;;;11.10;7.30;;;15.40;99.90;;;;;;5036786;28;20055;-55
2022/08/29 06:36:26;;;;;;;15.93;8.02;;;15.50;99.90;;;;;;5045348;28;20762;-54
2022/08/29 06:39:00;;;;;;;8.45;6.22;;;15.60;99.90;;;;;;5056586;28;20450;-54
2022/08/29 06:41:28;;;;;;;7.70;6.20;;;15.70;99.90;;;;;;5057581;28;20048;-53
2022/08/29 06:43:58;;;;;;;8.60;6.00;;;15.80;99.90;;;;;;5054347;28;20071;-55
2022/08/29 06:46:32;;;;;;;9.50;7.13;;;15.90;99.90;;;;;;5057377;28;20101;-57
2022/08/29 06:49:01;;;;;;;11.98;7.25;;;16.10;99.90;;;;;;5056765;28;20113;-56
2022/08/29 06:51:31;;;;;;;8.05;6.68;;;16.20;99.90;;;;;;5056533;28;20051;-56
2022/08/29 06:54:00;;;;;;;10.05;6.40;;;16.30;99.90;;;;;;5056935;28;20097;-55
2022/08/29 06:56:28;;;;;;;6.88;6.18;;;16.50;99.90;;;;;;5054283;28;20040;-54
2022/08/29 06:58:55;;;;;;;8.07;6.32;;;16.50;99.90;;;;;;5056998;28;20469;-56
2022/08/29 07:01:22;;;;;;;9.20;6.28;;;16.60;99.90;;;;;;5055875;28;20086;-55
2022/08/29 07:03:52;;;;;;;9.77;6.07;;;16.70;99.90;;;;;;5021887;28;20052;-52
2022/08/29 07:06:19;;;;;;;7.13;6.43;;;16.80;99.90;;;;;;5055233;28;20442;-57
2022/08/29 07:08:47;;;;;;;6.90;5.65;;;17.00;99.90;;;;;;5057275;28;20133;-57
2022/08/29 07:11:24;;;;;;;7.28;5.57;;;17.00;99.90;;;;;;5057198;28;20048;-56
2022/08/29 07:13:51;;;;;;;7.30;6.32;;;17.20;99.90;;;;;;5058781;28;20460;-55
2022/08/29 07:16:18;;;;;;;6.20;5.60;;;17.30;99.90;;;;;;5057220;28;20079;-56
2022/08/29 07:18:46;;;;;;;8.75;6.22;;;17.40;99.90;;;;;;5055411;28;20118;-55
2022/08/29 07:21:16;;;;;;;8.70;5.60;;;17.50;99.90;;;;;;5055245;28;20070;-56
2022/08/29 07:23:48;;;;;;;8.70;6.13;;;17.70;99.90;;;;;;5036570;28;20055;-58
2022/08/29 07:26:25;;;;;;;7.00;5.70;;;17.80;99.90;;;;;;5035026;28;20098;-55
2022/08/29 07:28:54;;;;;;;8.90;6.55;;;17.90;99.90;;;;;;5041015;28;20048;-55
2022/08/29 07:31:21;;;;;;;7.00;5.68;;;18.00;99.90;;;;;;5055931;28;20048;-55
2022/08/29 07:33:48;;;;;;;7.88;5.40;;;18.10;99.90;;;;;;5055834;28;20047;-56
2022/08/29 07:36:27;;;;;;;7.00;6.28;;;18.20;99.90;;;;;;5056464;28;20041;-53
2022/08/29 07:38:54;;;;;;;10.43;5.63;;;18.30;99.90;;;;;;5050892;28;20091;-54
2022/08/29 07:41:22;;;;;;;6.95;6.20;;;18.40;99.90;;;;;;5034931;28;20060;-53
2022/08/29 07:43:50;;;;;;;9.43;6.63;;;18.60;99.90;;;;;;5056561;28;20730;-53
2022/08/29 07:46:19;;;;;;;10.80;7.15;;;19.20;99.90;;;;;;5054985;28;20758;-54
2022/08/29 07:48:46;;;;;;;8.13;6.10;;;20.00;99.90;;;;;;5056651;28;20040;-55
2022/08/29 07:51:16;;;;;;;9.60;6.18;;;20.70;99.90;;;;;;5056277;28;20060;-55
2022/08/29 07:53:44;;;;;;;10.63;7.15;;;21.30;99.90;;;;;;5056011;28;20675;-55
2022/08/29 07:56:14;;;;;;;11.07;6.28;;;21.80;99.90;;;;;;5054472;28;20048;-54
2022/08/29 07:58:42;;;;;;;6.40;5.80;;;22.30;99.90;;;;;;5054598;28;20044;-55
2022/08/29 08:01:09;;;;;;;7.38;6.32;;;22.60;99.90;;;;;;5054120;28;20677;-55
2022/08/29 08:03:46;;;;;;;9.55;5.50;;;23.00;99.90;;;;;;5055039;28;20772;-52
2022/08/29 08:06:13;;;;;;;7.03;6.10;;;23.40;99.90;;;;;;5055906;28;20052;-53
2022/08/29 08:08:40;;;;;;;7.75;5.90;;;23.90;99.90;;;;;;5056159;28;20037;-54
2022/08/29 08:11:08;;;;;;;7.32;5.75;;;24.30;99.90;;;;;;5056050;28;20041;-54
2022/08/29 08:13:36;;;;;;;8.25;6.43;;;24.60;99.90;;;;;;5053970;28;20044;-53
2022/08/29 08:16:06;;;;;;;7.65;5.68;;;24.80;99.90;;;;;;5036485;28;20083;-54
2022/08/29 08:18:35;;;;;;;6.32;5.60;;;25.00;99.90;;;;;;5036231;28;20467;-54
2022/08/29 08:21:02;;;;;;;8.00;6.10;;;25.20;99.90;;;;;;5035921;28;20069;-54
2022/08/29 08:23:30;;;;;;;8.60;6.30;;;25.20;99.90;;;;;;5035381;28;20041;-54
2022/08/29 08:25:57;;;;;;;7.15;5.43;;;25.30;99.90;;;;;;5032959;28;20658;-54
2022/08/29 08:28:25;;;;;;;10.07;5.72;;;25.30;99.90;;;;;;5036403;28;20491;-53
2022/08/29 08:30:52;;;;;;;11.00;6.85;;;25.40;99.90;;;;;;5035241;28;20041;-57
2022/08/29 08:33:19;;;;;;;9.50;6.85;;;25.50;99.90;;;;;;5035435;28;20055;-57
2022/08/29 08:35:46;;;;;;;11.30;7.35;;;25.60;99.90;;;;;;5037949;28;20045;-55
2022/08/29 08:38:15;;;;;;;7.90;7.10;;;25.60;99.90;;;;;;5055267;28;20098;-55
2022/08/29 08:41:01;;;;;;;13.02;8.25;;;25.60;99.90;;;;;;5055425;28;20144;-57
2022/08/29 08:43:45;;;;;;;9.35;8.23;;;25.50;99.90;;;;;;5054597;28;20060;-56
2022/08/29 08:46:13;;;;;;;14.05;9.23;;;25.20;99.90;;;;;;5055514;28;20082;-55
2022/08/29 08:48:40;;;;;;;15.13;10.68;;;25.00;99.90;;;;;;5037554;28;20049;-57
2022/08/29 08:51:21;;;;;;;12.68;9.05;;;24.90;99.90;;;;;;5055187;28;20040;-55
2022/08/29 08:53:53;;;;;;;16.60;10.50;;;25.00;99.90;;;;;;5053704;28;20048;-56
2022/08/29 08:56:40;;;;;;;14.25;9.27;;;24.90;99.90;;;;;;5053366;28;20056;-55
2022/08/29 08:59:19;;;;;;;13.80;8.70;;;24.90;99.90;;;;;;5034470;28;20041;-55
2022/08/29 09:02:01;;;;;;;15.93;9.90;;;25.00;99.90;;;;;;5034727;28;20075;-56
2022/08/29 09:04:59;;;;;;;13.38;10.85;;;25.10;99.90;;;;;;5032895;28;20072;-57
2022/08/29 09:07:51;;;;;;;11.10;9.50;;;25.30;99.90;;;;;;5034710;28;20326;-56
2022/08/29 09:10:18;;;;;;;13.77;9.13;;;25.40;99.90;;;;;;5039181;28;20040;-54
2022/08/29 09:13:17;;;;;;;10.95;9.10;;;25.50;99.90;;;;;;5054735;28;20037;-56
2022/08/29 09:15:46;;;;;;;15.57;9.70;;;25.80;99.90;;;;;;5049523;28;20908;-54
2022/08/29 09:18:38;;;;;;;12.38;8.52;;;26.00;99.90;;;;;;5053444;28;20106;-57
2022/08/29 09:21:18;;;;;;;14.27;9.85;;;26.40;99.90;;;;;;5053157;28;20563;-55
2022/08/29 09:24:09;;;;;;;14.63;8.82;;;26.50;99.90;;;;;;5049058;28;20041;-55
2022/08/29 09:26:36;;;;;;;13.45;9.77;;;26.50;99.90;;;;;;5015724;28;20079;-58
2022/08/29 09:29:08;;;;;;;10.25;7.90;;;26.50;99.90;;;;;;5034038;28;20124;-55
2022/08/29 09:31:35;;;;;;;11.18;8.10;;;26.30;99.90;;;;;;5034869;28;20507;-56
2022/08/29 09:34:07;;;;;;;9.75;8.75;;;26.20;99.90;;;;;;5034997;28;20045;-56
2022/08/29 09:36:48;;;;;;;13.70;11.80;;;26.00;99.90;;;;;;5043398;28;20036;-56
2022/08/29 09:39:14;;;;;;;12.32;10.55;;;25.60;99.90;;;;;;5054706;28;20044;-57
2022/08/29 09:41:43;;;;;;;15.82;13.07;;;25.10;99.90;;;;;;5052433;28;20049;-55
2022/08/29 09:44:23;;;;;;;13.27;11.88;;;24.80;99.90;;;;;;5053631;28;20052;-56
2022/08/29 09:47:11;;;;;;;13.80;12.43;;;24.70;99.90;;;;;;5054906;28;20040;-55
2022/08/29 09:49:40;;;;;;;20.08;12.20;;;24.90;99.90;;;;;;5051293;28;20136;-54
2022/08/29 09:52:23;;;;;;;12.43;10.77;;;24.90;99.90;;;;;;5053490;28;20860;-56
2022/08/29 09:54:50;;;;;;;14.65;12.50;;;25.10;99.90;;;;;;5058419;28;20048;-56
2022/08/29 09:57:17;;;;;;;10.07;8.95;;;25.40;99.90;;;;;;5058658;28;20056;-53
2022/08/29 09:59:49;;;;;;;13.00;11.07;;;25.70;99.90;;;;;;5056699;28;20052;-53
2022/08/29 10:02:26;;;;;;;12.43;9.63;;;26.00;99.90;;;;;;5058243;28;20051;-56
2022/08/29 10:04:55;;;;;;;14.13;11.27;;;26.40;99.90;;;;;;5057522;28;20082;-54
2022/08/29 10:07:23;;;;;;;15.00;11.63;;;26.50;99.90;;;;;;5058383;28;20143;-55
2022/08/29 10:09:59;;;;;;;14.48;10.77;;;26.40;99.90;;;;;;5056426;28;20052;-56
2022/08/29 10:12:39;;;;;;;13.10;9.63;;;26.20;99.90;;;;;;5058328;28;20849;-56
2022/08/29 10:15:11;;;;;;;16.23;10.38;;;26.20;99.90;;;;;;5057699;28;20082;-53
2022/08/29 10:18:22;;;;;;;11.70;8.32;;;26.40;99.90;;;;;;5058384;28;20136;-56
2022/08/29 10:20:53;;;;;;;12.57;8.88;;;26.70;99.90;;;;;;5055626;28;20040;-56
2022/08/29 10:23:33;;;;;;;10.88;7.57;;;27.00;99.90;;;;;;5057764;28;20507;-54
2022/08/29 10:26:08;;;;;;;10.63;7.55;;;27.30;99.90;;;;;;5044818;28;20049;-53
2022/08/29 10:28:55;;;;;;;7.10;5.68;;;27.60;99.90;;;;;;5037778;28;20060;-54
2022/08/29 10:31:42;;;;;;;5.57;5.07;;;28.00;99.90;;;;;;5035773;28;20045;-55
2022/08/29 10:34:33;;;;;;;6.20;5.60;;;28.40;97.60;;;;;;5038131;28;20041;-55
2022/08/29 10:37:08;;;;;;;5.57;5.00;;;28.80;97.50;;;;;;5050621;28;20033;-55
2022/08/29 10:39:57;;;;;;;4.30;3.90;;;29.00;93.20;;;;;;5057799;28;20763;-54
2022/08/29 10:42:26;;;;;;;5.50;4.80;;;29.30;90.10;;;;;;5057029;28;20139;-53
2022/08/29 10:45:12;;;;;;;4.68;4.28;;;29.40;79.40;;;;;;5056231;28;20071;-54
2022/08/29 10:48:12;;;;;;;4.78;4.13;;;29.50;78.70;;;;;;5057676;28;20048;-56
2022/08/29 10:51:08;;;;;;;5.03;3.60;;;29.50;73.10;;;;;;5058065;28;20040;-57
2022/08/29 10:53:42;;;;;;;3.53;3.22;;;29.60;74.50;;;;;;5055245;28;20044;-54
2022/08/29 10:56:25;;;;;;;6.78;3.72;;;29.60;72.30;;;;;;5057769;28;20044;-55
2022/08/29 10:59:17;;;;;;;2.75;2.50;;;29.70;70.40;;;;;;5056297;28;20044;-55
2022/08/29 11:01:59;;;;;;;3.97;3.60;;;29.70;66.30;;;;;;5057529;28;20569;-55
2022/08/29 11:04:35;;;;;;;10.40;3.75;;;29.80;67.10;;;;;;5054732;28;20056;-56
2022/08/29 11:07:11;;;;;;;5.13;3.78;;;29.70;65.90;;;;;;5055994;28;20696;-53
2022/08/29 11:09:46;;;;;;;3.50;3.20;;;29.70;67.70;;;;;;5055915;28;20048;-54
2022/08/29 11:12:17;;;;;;;3.17;2.88;;;29.70;64.00;;;;;;5041020;28;20047;-56
2022/08/29 11:15:08;;;;;;;4.15;2.67;;;29.80;63.30;;;;;;5056723;28;20040;-54
2022/08/29 11:17:40;;;;;;;4.03;3.30;;;29.70;60.20;;;;;;5057091;28;20044;-56
2022/08/29 11:20:18;;;;;;;5.47;4.10;;;29.60;62.70;;;;;;5056850;28;20048;-57
2022/08/29 11:22:48;;;;;;;4.13;3.13;;;29.60;63.50;;;;;;5055003;28;20052;-55
2022/08/29 11:25:18;;;;;;;3.70;3.40;;;29.40;61.60;;;;;;5056217;28;20542;-56
2022/08/29 11:27:58;;;;;;;5.30;4.72;;;29.40;64.90;;;;;;5036758;28;20127;-53
2022/08/29 11:30:46;;;;;;;5.00;4.22;;;29.40;70.20;;;;;;5036595;28;20040;-65
2022/08/29 11:33:50;;;;;;;3.92;3.60;;;29.40;68.80;;;;;;5035295;28;20045;-66
2022/08/29 11:36:59;;;;;;;5.70;3.95;;;29.40;67.50;;;;;;5041789;28;20037;-67
2022/08/29 11:39:35;;;;;;;5.05;3.28;;;29.50;69.90;;;;;;5029131;28;20056;-66
2022/08/29 11:42:06;;;;;;;6.33;3.00;;;29.50;65.30;;;;;;5036874;28;20147;-66
2022/08/29 11:44:39;;;;;;;3.15;2.50;;;29.50;63.50;;;;;;5034429;28;20305;-67
2022/08/29 11:47:28;;;;;;;2.55;2.22;;;29.30;61.30;;;;;;5035461;28;20041;-68
2022/08/29 11:50:16;;;;;;;5.03;2.28;;;29.10;61.50;;;;;;5036545;28;20075;-67
2022/08/29 11:52:58;;;;;;;2.70;2.50;;;29.20;59.90;;;;;;5037001;28;20041;-67
2022/08/29 11:55:40;;;;;;;2.88;2.67;;;29.20;62.40;;;;;;5036536;28;20069;-68
2022/08/29 11:58:13;;;;;;;2.92;2.70;;;29.30;63.50;;;;;;5036287;28;20590;-69
2022/08/29 12:00:47;;;;;;;4.15;3.53;;;29.30;62.40;;;;;;5031941;28;20160;-67
2022/08/29 12:03:36;;;;;;;5.68;3.00;;;29.40;61.70;;;;;;5056456;28;20666;-67
2022/08/29 12:06:30;;;;;;;3.08;2.78;;;29.40;63.20;;;;;;5052491;28;20705;-67
2022/08/29 12:09:14;;;;;;;3.25;2.70;;;29.50;61.60;;;;;;5038804;28;20060;-69
2022/08/29 12:12:12;;;;;;;3.70;3.30;;;29.60;62.40;;;;;;5055874;28;20364;-69
2022/08/29 12:14:50;;;;;;;4.65;2.97;;;29.60;62.10;;;;;;5039888;28;20140;-71
2022/08/29 12:17:21;;;;;;;4.18;2.83;;;29.50;61.80;;;;;;5034770;28;20579;-66
2022/08/29 12:19:51;;;;;;;4.32;2.42;;;29.30;60.80;;;;;;5035366;28;20052;-67
2022/08/29 12:22:56;;;;;;;2.53;2.03;;;29.10;59.40;;;;;;5036130;28;20068;-68
2022/08/29 12:25:26;;;;;;;2.53;2.33;;;29.00;60.80;;;;;;4992699;28;20054;-67
2022/08/29 12:28:30;;;;;;;3.28;2.95;;;28.90;61.30;;;;;;5027610;28;20080;-68
2022/08/29 12:30:56;;;;;;;2.38;2.08;;;29.10;61.40;;;;;;5034341;28;20087;-68
2022/08/29 12:33:35;;;;;;;2.30;2.15;;;29.10;60.40;;;;;;5048781;28;20161;-67
2022/08/29 12:36:39;;;;;;;2.75;2.55;;;29.30;59.90;;;;;;5055728;28;20043;-67
2022/08/29 12:39:23;;;;;;;2.33;2.13;;;29.20;60.90;;;;;;5052934;28;20117;-70
2022/08/29 12:42:11;;;;;;;2.80;2.20;;;29.30;62.10;;;;;;5054064;28;20041;-66
2022/08/29 12:44:41;;;;;;;2.67;2.47;;;29.30;59.80;;;;;;5052935;28;20052;-66
2022/08/29 12:47:11;;;;;;;6.10;2.72;;;29.30;58.60;;;;;;5055886;28;20056;-66
2022/08/29 12:49:52;;;;;;;2.13;1.60;;;29.20;60.90;;;;;;5053976;28;20056;-66
2022/08/29 12:52:28;;;;;;;3.65;2.05;;;29.10;59.80;;;;;;5054539;28;20040;-66
2022/08/29 12:54:57;;;;;;;2.55;2.20;;;29.20;61.50;;;;;;5037240;28;20044;-65
2022/08/29 12:57:35;;;;;;;6.07;2.55;;;29.10;60.30;;;;;;5055143;28;20052;-65
2022/08/29 13:00:10;;;;;;;4.68;2.45;;;29.20;59.50;;;;;;5053187;28;20044;-65
2022/08/29 13:02:37;;;;;;;6.20;2.63;;;29.30;60.20;;;;;;5054517;28;20121;-65
2022/08/29 13:05:21;;;;;;;5.55;2.65;;;29.30;60.10;;;;;;5053273;28;20137;-66
2022/08/29 13:07:58;;;;;;;2.70;2.50;;;29.40;59.50;;;;;;5054704;28;20066;-65
2022/08/29 13:10:26;;;;;;;2.33;2.13;;;29.50;58.60;;;;;;5055240;28;20044;-65
2022/08/29 13:13:16;;;;;;;2.53;2.30;;;29.60;57.00;;;;;;5053103;28;20068;-65
2022/08/29 13:15:48;;;;;;;2.33;2.13;;;29.70;58.60;;;;;;5054842;28;20049;-67
2022/08/29 13:18:16;;;;;;;3.75;2.13;;;29.80;58.40;;;;;;5052802;28;20589;-64